Time,TemperatureF,DewpointF,PressureIn,WindDirection,WindDirectionDegrees,WindSpeedMPH,WindSpeedGustMPH,Humidity,HourlyPrecipIn,Conditions,Clouds,dailyrainin,SoftwareType,DateUTC
2013-09-20 00:00:00,62.9,61.4,30.01,SSE,162,0.0,0.0,95,0.00,,,0.00,Wunderground v.1.15,2013-09-20 04:00:00,
2013-09-20 00:05:00,62.8,61.3,30.01,SSE,162,0.0,0.0,95,0.00,,,0.00,Wunderground v.1.15,2013-09-20 04:05:00,
2013-09-20 00:10:00,62.8,61.3,30.01,SSE,162,0.0,0.0,95,0.00,,,0.00,Wunderground v.1.15,2013-09-20 04:10:00,
2013-09-20 00:19:00,62.8,61.6,30.01,SSE,162,0.0,0.0,96,0.00,,,0.00,Wunderground v.1.15,2013-09-20 04:19:00,
2013-09-20 00:24:00,62.8,61.6,30.01,SSE,162,0.0,0.0,96,0.00,,,0.00,Wunderground v.1.15,2013-09-20 04:24:00,
2013-09-20 00:29:00,62.8,61.6,30.01,SSE,162,0.0,0.0,96,0.00,,,0.00,Wunderground v.1.15,2013-09-20 04:29:00,
2013-09-20 00:34:00,62.8,61.6,30.01,SSE,162,0.0,0.0,96,0.00,,,0.00,Wunderground v.1.15,2013-09-20 04:34:00,
2013-09-20 00:40:00,62.9,61.7,30.01,SSE,162,0.0,0.0,96,0.00,,,0.00,Wunderground v.1.15,2013-09-20 04:40:00,
2013-09-20 00:49:00,62.9,61.7,30.01,SSE,162,0.0,0.0,96,0.00,,,0.00,Wunderground v.1.15,2013-09-20 04:49:00,
2013-09-20 00:54:00,62.9,61.7,30.01,SSE,162,0.0,0.0,96,0.00,,,0.00,Wunderground v.1.15,2013-09-20 04:54:00,
2013-09-20 00:59:00,62.9,61.7,30.01,SSE,162,0.0,0.0,96,0.00,,,0.00,Wunderground v.1.15,2013-09-20 04:59:00,
2013-09-20 01:04:00,62.9,61.7,30.01,SSE,162,0.0,0.0,96,0.00,,,0.00,Wunderground v.1.15,2013-09-20 05:04:00,
2013-09-20 01:14:00,63.0,61.8,30.01,SSE,163,0.0,0.0,96,0.00,,,0.00,Wunderground v.1.15,2013-09-20 05:14:00,
2013-09-20 01:19:00,63.0,61.8,30.01,SSE,163,0.0,0.0,96,0.00,,,0.00,Wunderground v.1.15,2013-09-20 05:19:00,
2013-09-20 01:24:00,62.9,61.7,30.01,SSE,163,0.0,0.0,96,0.00,,,0.00,Wunderground v.1.15,2013-09-20 05:24:00,
2013-09-20 01:29:00,62.9,61.7,30.01,SSE,163,0.0,0.0,96,0.00,,,0.01,Wunderground v.1.15,2013-09-20 05:29:00,
2013-09-20 01:39:00,62.9,61.7,30.01,SSE,163,0.0,0.0,96,0.00,,,0.01,Wunderground v.1.15,2013-09-20 05:39:00,
2013-09-20 01:44:00,62.8,61.6,30.01,SSE,163,0.0,0.0,96,0.00,,,0.01,Wunderground v.1.15,2013-09-20 05:44:00,
2013-09-20 01:49:00,62.8,61.6,30.02,SSE,163,0.0,0.0,96,0.00,,,0.00,Wunderground v.1.15,2013-09-20 05:49:00,
2013-09-20 01:54:00,62.8,61.6,30.02,SSE,163,0.0,0.0,96,0.00,,,0.00,Wunderground v.1.15,2013-09-20 05:54:00,
2013-09-20 02:00:00,62.8,61.9,30.02,SSE,163,0.0,0.0,97,0.00,,,0.00,Wunderground v.1.15,2013-09-20 06:00:00,
2013-09-20 02:09:00,62.9,62.0,30.02,SSE,163,0.0,0.0,97,0.00,,,0.00,Wunderground v.1.15,2013-09-20 06:09:00,
2013-09-20 02:14:00,62.9,62.0,30.02,SSE,163,0.0,0.0,97,0.00,,,0.00,Wunderground v.1.15,2013-09-20 06:14:00,
2013-09-20 02:19:00,62.8,61.9,30.01,SSE,163,0.0,0.0,97,0.00,,,0.00,Wunderground v.1.15,2013-09-20 06:19:00,
2013-09-20 02:24:00,62.8,61.6,30.01,SSE,163,0.0,0.0,96,0.00,,,0.00,Wunderground v.1.15,2013-09-20 06:24:00,
2013-09-20 02:34:00,62.8,61.9,30.01,SSE,163,0.0,0.0,97,0.00,,,0.00,Wunderground v.1.15,2013-09-20 06:34:00,
2013-09-20 02:39:00,62.8,61.9,30.01,SSE,163,0.0,0.0,97,0.00,,,0.00,Wunderground v.1.15,2013-09-20 06:39:00,
2013-09-20 02:44:00,62.8,61.9,30.01,SSE,163,0.0,0.0,97,0.00,,,0.00,Wunderground v.1.15,2013-09-20 06:44:00,
2013-09-20 02:49:00,62.8,61.9,30.01,SSE,163,0.0,0.0,97,0.00,,,0.00,Wunderground v.1.15,2013-09-20 06:49:00,
2013-09-20 02:55:00,62.8,61.9,30.01,SSE,163,0.0,0.0,97,0.00,,,0.00,Wunderground v.1.15,2013-09-20 06:55:00,
2013-09-20 03:04:00,62.7,61.8,30.01,SSE,163,0.0,0.0,97,0.00,,,0.00,Wunderground v.1.15,2013-09-20 07:04:00,
2013-09-20 03:09:00,62.7,61.8,30.01,SSE,163,0.0,0.0,97,0.00,,,0.00,Wunderground v.1.15,2013-09-20 07:09:00,
2013-09-20 03:19:00,62.7,61.8,30.00,SSE,163,0.0,0.0,97,0.00,,,0.00,Wunderground v.1.15,2013-09-20 07:19:00,
2013-09-20 03:24:00,62.7,61.8,30.00,SSE,163,0.0,0.0,97,0.00,,,0.00,Wunderground v.1.15,2013-09-20 07:24:00,
2013-09-20 03:29:00,62.7,61.8,30.00,SSE,163,0.0,0.0,97,0.00,,,0.00,Wunderground v.1.15,2013-09-20 07:29:00,
2013-09-20 03:34:00,62.7,61.8,30.00,SSE,163,0.0,0.0,97,0.00,,,0.00,Wunderground v.1.15,2013-09-20 07:34:00,
2013-09-20 03:44:00,62.8,61.9,30.00,SSE,163,0.0,0.0,97,0.00,,,0.00,Wunderground v.1.15,2013-09-20 07:44:00,
2013-09-20 03:49:00,62.8,61.9,29.99,SSE,163,0.0,0.0,97,0.00,,,0.00,Wunderground v.1.15,2013-09-20 07:49:00,
2013-09-20 03:54:00,62.8,61.9,29.99,SSE,163,0.0,0.0,97,0.00,,,0.00,Wunderground v.1.15,2013-09-20 07:54:00,
2013-09-20 03:59:00,62.8,61.9,29.99,SSE,163,0.0,0.0,97,0.00,,,0.00,Wunderground v.1.15,2013-09-20 07:59:00,
2013-09-20 04:05:00,62.7,61.8,29.99,SSE,163,0.0,0.0,97,0.00,,,0.00,Wunderground v.1.15,2013-09-20 08:05:00,
2013-09-20 04:14:00,62.7,61.8,29.99,SSE,163,0.0,0.0,97,0.00,,,0.00,Wunderground v.1.15,2013-09-20 08:14:00,
2013-09-20 04:19:00,62.6,61.7,29.99,SSE,163,0.0,0.0,97,0.00,,,0.00,Wunderground v.1.15,2013-09-20 08:19:00,
2013-09-20 04:24:00,62.6,61.7,29.99,SSE,163,0.0,0.0,97,0.00,,,0.00,Wunderground v.1.15,2013-09-20 08:24:00,
2013-09-20 04:30:00,62.5,61.6,29.99,SSE,163,0.0,0.0,97,0.00,,,0.00,Wunderground v.1.15,2013-09-20 08:30:00,
2013-09-20 04:39:00,62.5,61.6,29.99,SSE,163,0.0,0.0,97,0.00,,,0.00,Wunderground v.1.15,2013-09-20 08:39:00,
2013-09-20 04:44:00,62.4,61.5,29.99,SSE,163,0.0,0.0,97,0.00,,,0.00,Wunderground v.1.15,2013-09-20 08:44:00,
2013-09-20 04:49:00,62.4,61.5,29.99,SSE,163,0.0,0.0,97,0.00,,,0.00,Wunderground v.1.15,2013-09-20 08:49:00,
2013-09-20 04:54:00,62.4,61.5,29.99,SSE,163,0.0,0.0,97,0.00,,,0.00,Wunderground v.1.15,2013-09-20 08:54:00,
2013-09-20 05:00:00,62.4,61.5,29.99,SSE,163,0.0,0.0,97,0.00,,,0.00,Wunderground v.1.15,2013-09-20 09:00:00,
2013-09-20 05:09:00,62.4,61.5,29.99,SSE,163,0.0,0.0,97,0.00,,,0.00,Wunderground v.1.15,2013-09-20 09:09:00,
2013-09-20 05:14:00,62.4,61.5,29.99,SSE,163,0.0,0.0,97,0.00,,,0.00,Wunderground v.1.15,2013-09-20 09:14:00,
2013-09-20 05:19:00,62.4,61.5,30.00,SSE,163,0.0,0.0,97,0.00,,,0.00,Wunderground v.1.15,2013-09-20 09:19:00,
2013-09-20 05:24:00,62.4,61.5,30.00,SSE,163,0.0,0.0,97,0.00,,,0.01,Wunderground v.1.15,2013-09-20 09:24:00,
2013-09-20 05:34:00,62.6,61.7,30.01,SSE,163,0.0,0.0,97,0.00,,,0.01,Wunderground v.1.15,2013-09-20 09:34:00,
2013-09-20 05:39:00,62.6,61.7,30.01,SSE,163,0.0,0.0,97,0.05,,,0.02,Wunderground v.1.15,2013-09-20 09:39:00,
2013-09-20 05:44:00,62.6,61.7,30.01,SSE,162,0.0,0.0,97,0.58,,,0.03,Wunderground v.1.15,2013-09-20 09:44:00,
2013-09-20 05:49:00,62.6,62.0,30.01,SSE,162,0.0,0.0,98,0.23,,,0.07,Wunderground v.1.15,2013-09-20 09:49:00,
2013-09-20 05:54:00,62.5,61.6,30.01,SSE,162,0.0,0.0,97,0.20,,,0.08,Wunderground v.1.15,2013-09-20 09:54:00,
2013-09-20 06:04:00,62.5,61.6,30.00,SSE,162,0.0,0.0,97,0.09,,,0.09,Wunderground v.1.15,2013-09-20 10:04:00,
2013-09-20 06:09:00,62.5,61.6,30.00,SSE,162,0.0,0.0,97,0.10,,,0.10,Wunderground v.1.15,2013-09-20 10:09:00,
2013-09-20 06:14:00,62.5,61.6,30.00,SSE,162,0.0,0.0,97,0.06,,,0.10,Wunderground v.1.15,2013-09-20 10:14:00,
2013-09-20 06:19:00,62.4,61.5,30.00,SSE,162,0.0,0.0,97,0.04,,,0.10,Wunderground v.1.15,2013-09-20 10:19:00,
2013-09-20 06:24:00,62.4,61.5,30.00,SSE,162,0.0,0.0,97,0.00,,,0.10,Wunderground v.1.15,2013-09-20 10:24:00,
2013-09-20 06:34:00,62.3,61.4,30.01,SSE,162,0.0,0.0,97,0.13,,,0.12,Wunderground v.1.15,2013-09-20 10:34:00,
2013-09-20 06:39:00,62.3,61.7,30.01,SSE,162,0.0,0.0,98,0.14,,,0.13,Wunderground v.1.15,2013-09-20 10:39:00,
2013-09-20 06:44:00,62.2,61.6,30.00,SSE,162,0.0,0.0,98,0.06,,,0.13,Wunderground v.1.15,2013-09-20 10:44:00,
2013-09-20 06:50:00,62.2,61.6,30.00,SSE,148,0.0,0.0,98,0.04,,,0.13,Wunderground v.1.15,2013-09-20 10:50:00,
2013-09-20 06:59:00,62.1,61.5,30.00,ENE,58,0.0,0.0,98,0.00,,,0.13,Wunderground v.1.15,2013-09-20 10:59:00,
2013-09-20 07:04:00,62.0,61.4,30.00,ENE,58,0.0,0.0,98,0.00,,,0.13,Wunderground v.1.15,2013-09-20 11:04:00,
2013-09-20 07:09:00,62.0,61.4,30.00,ESE,104,0.0,0.0,98,0.00,,,0.13,Wunderground v.1.15,2013-09-20 11:09:00,
2013-09-20 07:14:00,61.9,61.0,30.00,ESE,104,0.0,0.0,97,0.00,,,0.13,Wunderground v.1.15,2013-09-20 11:14:00,
2013-09-20 07:20:00,61.8,60.9,30.00,ESE,104,0.0,0.0,97,0.00,,,0.13,Wunderground v.1.15,2013-09-20 11:20:00,
2013-09-20 07:29:00,61.7,60.8,30.00,ESE,104,0.0,0.0,97,0.00,,,0.13,Wunderground v.1.15,2013-09-20 11:29:00,
2013-09-20 07:34:00,61.7,60.8,30.00,ESE,104,0.0,0.0,97,0.00,,,0.13,Wunderground v.1.15,2013-09-20 11:34:00,
2013-09-20 07:39:00,61.6,60.7,30.00,ESE,104,0.0,0.0,97,0.00,,,0.13,Wunderground v.1.15,2013-09-20 11:39:00,
2013-09-20 07:44:00,61.6,60.7,30.01,ESE,104,0.0,0.0,97,0.00,,,0.13,Wunderground v.1.15,2013-09-20 11:44:00,
2013-09-20 07:54:00,61.5,60.9,30.01,ESE,104,0.0,0.0,98,0.00,,,0.13,Wunderground v.1.15,2013-09-20 11:54:00,
2013-09-20 07:59:00,61.4,60.8,30.01,ESE,104,0.0,0.0,98,0.00,,,0.13,Wunderground v.1.15,2013-09-20 11:59:00,
2013-09-20 08:04:00,61.3,60.7,30.01,ESE,104,0.0,0.0,98,0.00,,,0.13,Wunderground v.1.15,2013-09-20 12:04:00,
2013-09-20 08:09:00,61.3,60.4,30.01,ESE,104,0.0,0.0,97,0.00,,,0.13,Wunderground v.1.15,2013-09-20 12:09:00,
2013-09-20 08:14:00,61.3,60.4,30.01,ESE,104,0.0,0.0,97,0.00,,,0.14,Wunderground v.1.15,2013-09-20 12:14:00,
2013-09-20 08:24:00,61.3,60.7,30.01,SE,124,0.0,0.0,98,0.00,,,0.14,Wunderground v.1.15,2013-09-20 12:24:00,
2013-09-20 08:29:00,61.4,60.8,30.01,SE,124,0.0,0.0,98,0.00,,,0.14,Wunderground v.1.15,2013-09-20 12:29:00,
2013-09-20 08:34:00,61.5,60.9,30.01,SE,124,0.0,0.0,98,0.00,,,0.14,Wunderground v.1.15,2013-09-20 12:34:00,
2013-09-20 08:39:00,61.6,61.0,30.01,SE,136,0.0,0.0,98,0.00,,,0.14,Wunderground v.1.15,2013-09-20 12:39:00,
2013-09-20 08:49:00,61.8,61.2,30.01,ESE,112,0.0,0.0,98,0.00,,,0.14,Wunderground v.1.15,2013-09-20 12:49:00,
2013-09-20 08:54:00,62.0,61.4,30.01,ESE,112,0.0,0.0,98,0.00,,,0.14,Wunderground v.1.15,2013-09-20 12:54:00,
2013-09-20 08:59:00,62.1,61.5,30.01,SE,139,0.0,1.0,98,0.00,,,0.14,Wunderground v.1.15,2013-09-20 12:59:00,
2013-09-20 09:04:00,62.2,61.6,30.01,East,97,1.0,1.0,98,0.00,,,0.14,Wunderground v.1.15,2013-09-20 13:04:00,
2013-09-20 09:10:00,62.4,61.8,30.01,East,97,0.0,1.0,98,0.00,,,0.14,Wunderground v.1.15,2013-09-20 13:10:00,
2013-09-20 09:19:00,62.8,62.2,30.01,SE,130,0.0,0.0,98,0.00,,,0.14,Wunderground v.1.15,2013-09-20 13:19:00,
2013-09-20 09:24:00,62.8,62.2,30.01,SE,130,0.0,0.0,98,0.00,,,0.14,Wunderground v.1.15,2013-09-20 13:24:00,
2013-09-20 09:29:00,63.0,62.4,30.01,East,96,0.0,1.0,98,0.00,,,0.14,Wunderground v.1.15,2013-09-20 13:29:00,
2013-09-20 09:34:00,63.2,62.6,30.01,East,84,1.0,1.0,98,0.00,,,0.14,Wunderground v.1.15,2013-09-20 13:34:00,
2013-09-20 09:44:00,63.3,62.7,30.01,SE,125,0.0,1.0,98,0.00,,,0.14,Wunderground v.1.15,2013-09-20 13:44:00,
2013-09-20 09:49:00,63.4,62.8,30.01,SE,128,0.0,0.0,98,0.00,,,0.14,Wunderground v.1.15,2013-09-20 13:49:00,
2013-09-20 09:54:00,63.5,62.9,30.01,SE,129,0.0,0.0,98,0.00,,,0.14,Wunderground v.1.15,2013-09-20 13:54:00,
2013-09-20 09:59:00,63.6,63.0,30.01,SE,129,0.0,0.0,98,0.00,,,0.14,Wunderground v.1.15,2013-09-20 13:59:00,
2013-09-20 10:04:00,63.8,63.2,30.01,SE,129,0.0,1.0,98,0.00,,,0.14,Wunderground v.1.15,2013-09-20 14:04:00,
2013-09-20 10:14:00,63.8,63.2,30.01,ESE,120,1.0,1.0,98,0.00,,,0.14,Wunderground v.1.15,2013-09-20 14:14:00,
2013-09-20 10:19:00,64.0,63.4,30.01,SE,146,1.0,1.0,98,0.00,,,0.14,Wunderground v.1.15,2013-09-20 14:19:00,
2013-09-20 10:24:00,64.2,63.6,30.01,WSW,243,1.0,1.0,98,0.00,,,0.14,Wunderground v.1.15,2013-09-20 14:24:00,
2013-09-20 10:29:00,64.5,63.9,30.01,SSE,162,1.0,1.0,98,0.00,,,0.14,Wunderground v.1.15,2013-09-20 14:29:00,
2013-09-20 10:34:00,65.0,64.4,30.01,SSE,148,1.0,1.0,98,0.00,,,0.14,Wunderground v.1.15,2013-09-20 14:34:00,
2013-09-20 10:44:00,65.1,64.5,30.01,ESE,121,1.0,3.0,98,0.00,,,0.14,Wunderground v.1.15,2013-09-20 14:44:00,
2013-09-20 10:49:00,65.2,64.6,30.00,SSW,195,1.0,2.0,98,0.00,,,0.14,Wunderground v.1.15,2013-09-20 14:49:00,
2013-09-20 10:54:00,65.4,64.8,30.00,SSE,156,1.0,2.0,98,0.00,,,0.14,Wunderground v.1.15,2013-09-20 14:54:00,
2013-09-20 11:00:00,65.4,64.5,30.00,ESE,108,1.0,1.0,97,0.00,,,0.14,Wunderground v.1.15,2013-09-20 15:00:00,
2013-09-20 11:09:00,65.4,64.2,30.00,ESE,106,1.0,1.0,96,0.00,,,0.14,Wunderground v.1.15,2013-09-20 15:09:00,
2013-09-20 11:14:00,65.6,64.7,30.00,East,91,0.0,1.0,97,0.00,,,0.14,Wunderground v.1.15,2013-09-20 15:14:00,
2013-09-20 11:19:00,65.6,64.7,30.00,SSE,161,0.0,0.0,97,0.00,,,0.14,Wunderground v.1.15,2013-09-20 15:19:00,
2013-09-20 11:24:00,65.7,64.8,30.00,SSE,152,0.0,0.0,97,0.00,,,0.14,Wunderground v.1.15,2013-09-20 15:24:00,
2013-09-20 11:34:00,65.7,64.8,30.00,SW,231,0.0,1.0,97,0.00,,,0.14,Wunderground v.1.15,2013-09-20 15:34:00,
2013-09-20 11:39:00,65.6,64.4,30.00,SW,214,0.0,0.0,96,0.00,,,0.14,Wunderground v.1.15,2013-09-20 15:39:00,
2013-09-20 11:44:00,65.6,64.7,30.00,South,189,0.0,0.0,97,0.00,,,0.14,Wunderground v.1.15,2013-09-20 15:44:00,
2013-09-20 11:49:00,65.6,64.7,30.00,South,170,0.0,1.0,97,0.00,,,0.14,Wunderground v.1.15,2013-09-20 15:49:00,
2013-09-20 11:54:00,65.7,64.8,30.00,South,169,1.0,1.0,97,0.00,,,0.14,Wunderground v.1.15,2013-09-20 15:54:00,
2013-09-20 12:05:00,65.8,64.9,29.99,East,89,0.0,4.0,97,0.00,,,0.14,Wunderground v.1.15,2013-09-20 16:05:00,
2013-09-20 12:14:00,66.0,65.1,29.99,ESE,108,0.0,4.0,97,0.00,,,0.14,Wunderground v.1.15,2013-09-20 16:14:00,
2013-09-20 12:24:00,66.3,65.4,30.00,SE,143,0.0,4.0,97,0.00,,,0.14,Wunderground v.1.15,2013-09-20 16:24:00,
2013-09-20 12:30:00,66.5,65.6,29.99,SSW,207,0.0,4.0,97,0.00,,,0.14,Wunderground v.1.15,2013-09-20 16:30:00,
2013-09-20 12:39:00,66.7,65.8,29.99,SSE,167,0.0,4.0,97,0.00,,,0.14,Wunderground v.1.15,2013-09-20 16:39:00,
2013-09-20 12:44:00,66.6,65.4,29.99,ESE,115,1.0,4.0,96,0.00,,,0.14,Wunderground v.1.15,2013-09-20 16:44:00,
2013-09-20 12:49:00,66.6,65.4,29.99,SE,132,1.0,1.0,96,0.00,,,0.14,Wunderground v.1.15,2013-09-20 16:49:00,
2013-09-20 12:59:00,66.7,65.5,29.99,South,174,1.0,1.0,96,0.00,,,0.14,Wunderground v.1.15,2013-09-20 16:59:00,
2013-09-20 13:04:00,66.8,65.6,29.98,South,179,1.0,4.0,96,0.00,,,0.14,Wunderground v.1.15,2013-09-20 17:04:00,
2013-09-20 13:09:00,66.8,65.6,29.98,SE,125,1.0,1.0,96,0.00,,,0.14,Wunderground v.1.15,2013-09-20 17:09:00,
2013-09-20 13:14:00,66.8,65.3,29.98,ESE,112,1.0,4.0,95,0.00,,,0.14,Wunderground v.1.15,2013-09-20 17:14:00,
2013-09-20 13:19:00,66.7,65.2,29.98,East,96,1.0,1.0,95,0.00,,,0.14,Wunderground v.1.15,2013-09-20 17:19:00,
2013-09-20 13:29:00,66.8,65.3,29.98,East,94,0.0,4.0,95,0.00,,,0.14,Wunderground v.1.15,2013-09-20 17:29:00,
2013-09-20 13:34:00,66.8,65.6,29.98,South,181,0.0,4.0,96,0.00,,,0.14,Wunderground v.1.15,2013-09-20 17:34:00,
2013-09-20 13:39:00,66.8,65.6,29.98,SE,134,0.0,4.0,96,0.00,,,0.14,Wunderground v.1.15,2013-09-20 17:39:00,
2013-09-20 13:44:00,66.9,65.7,29.97,SE,135,0.0,4.0,96,0.00,,,0.14,Wunderground v.1.15,2013-09-20 17:44:00,
2013-09-20 13:49:00,66.9,65.7,29.97,SE,129,0.0,4.0,96,0.00,,,0.15,Wunderground v.1.15,2013-09-20 17:49:00,
2013-09-20 13:59:00,67.1,65.9,29.97,SSW,196,1.0,1.0,96,0.00,,,0.15,Wunderground v.1.15,2013-09-20 17:59:00,
2013-09-20 14:04:00,67.0,65.8,29.96,SSW,204,0.0,4.0,96,0.00,,,0.15,Wunderground v.1.15,2013-09-20 18:04:00,
2013-09-20 14:09:00,66.9,65.7,29.96,SSW,204,0.0,4.0,96,0.00,,,0.15,Wunderground v.1.15,2013-09-20 18:09:00,
2013-09-20 14:14:00,66.8,65.6,29.97,SSW,204,0.0,4.0,96,0.00,,,0.15,Wunderground v.1.15,2013-09-20 18:14:00,
2013-09-20 14:19:00,66.8,65.6,29.97,SSW,204,0.0,4.0,96,0.00,,,0.15,Wunderground v.1.15,2013-09-20 18:19:00,
2013-09-20 14:29:00,66.8,65.6,29.97,SE,129,0.0,4.0,96,0.00,,,0.15,Wunderground v.1.15,2013-09-20 18:29:00,
2013-09-20 14:34:00,66.9,66.0,29.96,SE,134,0.0,4.0,97,0.00,,,0.15,Wunderground v.1.15,2013-09-20 18:34:00,
2013-09-20 14:39:00,66.9,66.0,29.96,SE,134,0.0,4.0,97,0.00,,,0.15,Wunderground v.1.15,2013-09-20 18:39:00,
2013-09-20 14:49:00,66.8,65.6,29.95,ESE,108,0.0,4.0,96,0.00,,,0.15,Wunderground v.1.15,2013-09-20 18:49:00,
2013-09-20 14:54:00,66.7,65.5,29.95,SE,139,0.0,4.0,96,0.00,,,0.15,Wunderground v.1.15,2013-09-20 18:54:00,
2013-09-20 14:59:00,66.7,65.5,29.95,ESE,108,0.0,4.0,96,0.00,,,0.15,Wunderground v.1.15,2013-09-20 18:59:00,
2013-09-20 15:04:00,66.7,65.8,29.95,ESE,122,0.0,4.0,97,0.00,,,0.15,Wunderground v.1.15,2013-09-20 19:04:00,
2013-09-20 15:09:00,66.8,65.9,29.95,ESE,122,0.0,4.0,97,0.00,,,0.15,Wunderground v.1.15,2013-09-20 19:09:00,
2013-09-20 15:19:00,66.8,65.9,29.93,ESE,114,0.0,4.0,97,0.00,,,0.15,Wunderground v.1.15,2013-09-20 19:19:00,
2013-09-20 15:24:00,66.9,66.0,29.93,SW,232,0.0,4.0,97,0.00,,,0.15,Wunderground v.1.15,2013-09-20 19:24:00,
2013-09-20 15:29:00,67.0,66.1,29.93,SSW,202,0.0,4.0,97,0.00,,,0.15,Wunderground v.1.15,2013-09-20 19:29:00,
2013-09-20 15:34:00,67.2,66.3,29.93,East,99,0.0,4.0,97,0.00,,,0.15,Wunderground v.1.15,2013-09-20 19:34:00,
2013-09-20 15:39:00,67.2,66.0,29.93,East,87,0.0,4.0,96,0.00,,,0.15,Wunderground v.1.15,2013-09-20 19:39:00,
2013-09-20 15:49:00,67.3,66.1,29.93,SE,146,0.0,4.0,96,0.00,,,0.15,Wunderground v.1.15,2013-09-20 19:49:00,
2013-09-20 15:54:00,67.5,66.3,29.93,SE,146,0.0,4.0,96,0.00,,,0.15,Wunderground v.1.15,2013-09-20 19:54:00,
2013-09-20 15:59:00,67.6,66.4,29.93,SE,127,0.0,4.0,96,0.00,,,0.15,Wunderground v.1.15,2013-09-20 19:59:00,
2013-09-20 16:04:00,67.6,66.4,29.93,SE,127,0.0,4.0,96,0.00,,,0.15,Wunderground v.1.15,2013-09-20 20:04:00,
2013-09-20 16:09:00,67.6,66.1,29.93,SE,131,0.0,4.0,95,0.00,,,0.15,Wunderground v.1.15,2013-09-20 20:09:00,
2013-09-20 16:19:00,67.6,66.4,29.93,ENE,59,0.0,4.0,96,0.00,,,0.15,Wunderground v.1.15,2013-09-20 20:19:00,
2013-09-20 16:24:00,67.7,66.5,29.93,ENE,59,0.0,4.0,96,0.00,,,0.15,Wunderground v.1.15,2013-09-20 20:24:00,
2013-09-20 16:29:00,67.6,66.4,29.92,ENE,67,0.0,4.0,96,0.00,,,0.15,Wunderground v.1.15,2013-09-20 20:29:00,
2013-09-20 16:34:00,67.6,66.4,29.92,ENE,69,0.0,4.0,96,0.00,,,0.15,Wunderground v.1.15,2013-09-20 20:34:00,
2013-09-20 16:39:00,67.6,66.4,29.92,ENE,69,0.0,4.0,96,0.00,,,0.15,Wunderground v.1.15,2013-09-20 20:39:00,
2013-09-20 16:49:00,67.5,66.0,29.92,ESE,110,0.0,4.0,95,0.00,,,0.15,Wunderground v.1.15,2013-09-20 20:49:00,
2013-09-20 16:54:00,67.4,65.9,29.92,SE,136,0.0,4.0,95,0.00,,,0.15,Wunderground v.1.15,2013-09-20 20:54:00,
2013-09-20 16:59:00,67.4,66.2,29.92,SE,129,0.0,4.0,96,0.00,,,0.15,Wunderground v.1.15,2013-09-20 20:59:00,
2013-09-20 17:09:00,67.4,66.2,29.92,SSW,212,0.0,4.0,96,0.00,,,0.15,Wunderground v.1.15,2013-09-20 21:09:00,
2013-09-20 17:14:00,67.3,66.1,29.92,SSW,212,0.0,4.0,96,0.00,,,0.15,Wunderground v.1.15,2013-09-20 21:14:00,
2013-09-20 17:19:00,67.3,66.1,29.92,ESE,117,0.0,4.0,96,0.00,,,0.15,Wunderground v.1.15,2013-09-20 21:19:00,
2013-09-20 17:24:00,67.3,66.1,29.92,SSW,204,0.0,4.0,96,0.00,,,0.15,Wunderground v.1.15,2013-09-20 21:24:00,
2013-09-20 17:29:00,67.2,66.0,29.92,South,174,0.0,4.0,96,0.00,,,0.15,Wunderground v.1.15,2013-09-20 21:29:00,
2013-09-20 17:39:00,67.2,66.0,29.92,South,170,0.0,4.0,96,0.00,,,0.15,Wunderground v.1.15,2013-09-20 21:39:00,
2013-09-20 17:44:00,67.1,65.9,29.92,South,170,0.0,4.0,96,0.00,,,0.15,Wunderground v.1.15,2013-09-20 21:44:00,
2013-09-20 17:49:00,67.0,65.8,29.92,East,82,0.0,4.0,96,0.00,,,0.15,Wunderground v.1.15,2013-09-20 21:49:00,
2013-09-20 17:54:00,67.0,65.8,29.92,East,82,0.0,4.0,96,0.00,,,0.15,Wunderground v.1.15,2013-09-20 21:54:00,
2013-09-20 17:59:00,66.9,65.7,29.92,East,82,0.0,4.0,96,0.00,,,0.15,Wunderground v.1.15,2013-09-20 21:59:00,
2013-09-20 18:09:00,66.8,65.6,29.92,East,82,0.0,4.0,96,0.00,,,0.15,Wunderground v.1.15,2013-09-20 22:09:00,
2013-09-20 18:14:00,66.8,65.6,29.92,East,82,0.0,4.0,96,0.00,,,0.15,Wunderground v.1.15,2013-09-20 22:14:00,
2013-09-20 18:19:00,66.8,65.6,29.92,East,82,0.0,4.0,96,0.00,,,0.15,Wunderground v.1.15,2013-09-20 22:19:00,
2013-09-20 18:24:00,66.8,65.9,29.92,ESE,110,0.0,4.0,97,0.00,,,0.15,Wunderground v.1.15,2013-09-20 22:24:00,
2013-09-20 18:29:00,66.8,65.6,29.92,ESE,110,0.0,4.0,96,0.00,,,0.15,Wunderground v.1.15,2013-09-20 22:29:00,
2013-09-20 18:39:00,66.8,65.9,29.92,ESE,110,0.0,4.0,97,0.00,,,0.15,Wunderground v.1.15,2013-09-20 22:39:00,
2013-09-20 18:44:00,66.8,65.9,29.92,ESE,110,0.0,4.0,97,0.00,,,0.15,Wunderground v.1.15,2013-09-20 22:44:00,
2013-09-20 18:49:00,66.7,65.5,29.92,ESE,110,0.0,4.0,96,0.00,,,0.15,Wunderground v.1.15,2013-09-20 22:49:00,
2013-09-20 18:54:00,66.6,65.4,29.92,ESE,110,0.0,4.0,96,0.00,,,0.15,Wunderground v.1.15,2013-09-20 22:54:00,
2013-09-20 18:59:00,66.5,65.3,29.92,ESE,110,0.0,4.0,96,0.00,,,0.15,Wunderground v.1.15,2013-09-20 22:59:00,
2013-09-20 19:09:00,66.4,65.5,29.92,ESE,110,0.0,4.0,97,0.00,,,0.15,Wunderground v.1.15,2013-09-20 23:09:00,
2013-09-20 19:14:00,66.3,65.4,29.92,ESE,110,0.0,4.0,97,0.00,,,0.15,Wunderground v.1.15,2013-09-20 23:14:00,
2013-09-20 19:19:00,66.2,65.0,29.92,ESE,110,0.0,4.0,96,0.00,,,0.15,Wunderground v.1.15,2013-09-20 23:19:00,
2013-09-20 19:29:00,66.1,64.9,29.92,ESE,110,0.0,4.0,96,0.00,,,0.15,Wunderground v.1.15,2013-09-20 23:29:00,
2013-09-20 19:34:00,66.1,64.9,29.92,ESE,110,0.0,4.0,96,0.00,,,0.15,Wunderground v.1.15,2013-09-20 23:34:00,
2013-09-20 19:39:00,66.0,64.8,29.92,ESE,110,0.0,4.0,96,0.00,,,0.15,Wunderground v.1.15,2013-09-20 23:39:00,
2013-09-20 19:44:00,65.9,64.7,29.92,ESE,110,0.0,4.0,96,0.00,,,0.15,Wunderground v.1.15,2013-09-20 23:44:00,
2013-09-20 19:49:00,65.9,65.0,29.92,ESE,110,0.0,4.0,97,0.00,,,0.15,Wunderground v.1.15,2013-09-20 23:49:00,
2013-09-20 19:59:00,65.8,64.9,29.92,ESE,110,0.0,4.0,97,0.00,,,0.15,Wunderground v.1.15,2013-09-20 23:59:00,
2013-09-20 20:04:00,65.8,64.9,29.92,ESE,110,0.0,4.0,97,0.00,,,0.15,Wunderground v.1.15,2013-09-21 00:04:00,
2013-09-20 20:09:00,65.8,64.9,29.92,ESE,110,0.0,4.0,97,0.00,,,0.15,Wunderground v.1.15,2013-09-21 00:09:00,
2013-09-20 20:14:00,65.7,64.8,29.92,ESE,110,0.0,4.0,97,0.00,,,0.15,Wunderground v.1.15,2013-09-21 00:14:00,
2013-09-20 20:19:00,65.7,64.8,29.92,ESE,110,0.0,4.0,97,0.00,,,0.15,Wunderground v.1.15,2013-09-21 00:19:00,
2013-09-20 20:29:00,65.6,64.7,29.92,ESE,110,0.0,4.0,97,0.00,,,0.15,Wunderground v.1.15,2013-09-21 00:29:00,
2013-09-20 20:34:00,65.6,64.7,29.92,ESE,110,0.0,4.0,97,0.00,,,0.15,Wunderground v.1.15,2013-09-21 00:34:00,
2013-09-20 20:39:00,65.6,64.7,29.92,ESE,110,0.0,4.0,97,0.00,,,0.15,Wunderground v.1.15,2013-09-21 00:39:00,
2013-09-20 20:44:00,65.6,64.7,29.92,ESE,110,0.0,4.0,97,0.00,,,0.15,Wunderground v.1.15,2013-09-21 00:44:00,
2013-09-20 20:49:00,65.6,64.7,29.92,ESE,110,0.0,4.0,97,0.00,,,0.15,Wunderground v.1.15,2013-09-21 00:49:00,
2013-09-20 20:59:00,65.5,64.6,29.92,ESE,110,0.0,4.0,97,0.00,,,0.15,Wunderground v.1.15,2013-09-21 00:59:00,
2013-09-20 21:04:00,65.4,64.5,29.92,ESE,110,0.0,4.0,97,0.00,,,0.15,Wunderground v.1.15,2013-09-21 01:04:00,
2013-09-20 21:09:00,65.4,64.5,29.92,ESE,110,0.0,4.0,97,0.00,,,0.15,Wunderground v.1.15,2013-09-21 01:09:00,
2013-09-20 21:19:00,65.3,64.4,29.92,ESE,110,0.0,4.0,97,0.00,,,0.15,Wunderground v.1.15,2013-09-21 01:19:00,
2013-09-20 21:24:00,65.2,64.3,29.92,ESE,110,0.0,4.0,97,0.00,,,0.15,Wunderground v.1.15,2013-09-21 01:24:00,
2013-09-20 21:29:00,65.1,64.5,29.92,ESE,110,0.0,4.0,98,0.00,,,0.15,Wunderground v.1.15,2013-09-21 01:29:00,
2013-09-20 21:34:00,65.1,64.2,29.93,ESE,110,0.0,4.0,97,0.00,,,0.15,Wunderground v.1.15,2013-09-21 01:34:00,
2013-09-20 21:44:00,65.1,64.2,29.93,ESE,110,0.0,4.0,97,0.00,,,0.15,Wunderground v.1.15,2013-09-21 01:44:00,
2013-09-20 21:49:00,65.1,64.5,29.92,ESE,110,0.0,4.0,98,0.00,,,0.15,Wunderground v.1.15,2013-09-21 01:49:00,
2013-09-20 21:54:00,65.1,64.5,29.92,ESE,110,0.0,4.0,98,0.00,,,0.15,Wunderground v.1.15,2013-09-21 01:54:00,
2013-09-20 21:59:00,65.1,64.5,29.92,ESE,110,0.0,4.0,98,0.00,,,0.15,Wunderground v.1.15,2013-09-21 01:59:00,
2013-09-20 22:04:00,65.1,64.5,29.92,ESE,110,0.0,4.0,98,0.00,,,0.15,Wunderground v.1.15,2013-09-21 02:04:00,
2013-09-20 22:14:00,65.1,64.5,29.92,ESE,110,0.0,4.0,98,0.00,,,0.15,Wunderground v.1.15,2013-09-21 02:14:00,
2013-09-20 22:19:00,65.1,64.5,29.91,ESE,110,0.0,4.0,98,0.00,,,0.15,Wunderground v.1.15,2013-09-21 02:19:00,
2013-09-20 22:24:00,65.1,64.5,29.91,ESE,110,0.0,4.0,98,0.00,,,0.15,Wunderground v.1.15,2013-09-21 02:24:00,
2013-09-20 22:29:00,65.1,64.5,29.91,ESE,110,0.0,4.0,98,0.00,,,0.15,Wunderground v.1.15,2013-09-21 02:29:00,
2013-09-20 22:34:00,65.0,64.4,29.91,ESE,110,0.0,4.0,98,0.00,,,0.15,Wunderground v.1.15,2013-09-21 02:34:00,
2013-09-20 22:44:00,65.0,64.4,29.91,ESE,110,0.0,4.0,98,0.00,,,0.15,Wunderground v.1.15,2013-09-21 02:44:00,
2013-09-20 22:49:00,65.0,64.4,29.91,ESE,110,0.0,4.0,98,0.00,,,0.15,Wunderground v.1.15,2013-09-21 02:49:00,
2013-09-20 22:54:00,65.0,64.4,29.91,ESE,110,0.0,4.0,98,0.00,,,0.15,Wunderground v.1.15,2013-09-21 02:54:00,
2013-09-20 22:59:00,64.9,64.3,29.90,ESE,110,0.0,4.0,98,0.00,,,0.15,Wunderground v.1.15,2013-09-21 02:59:00,
2013-09-20 23:09:00,64.9,64.3,29.90,ESE,110,0.0,4.0,98,0.00,,,0.15,Wunderground v.1.15,2013-09-21 03:09:00,
2013-09-20 23:14:00,64.9,64.3,29.90,ESE,110,0.0,4.0,98,0.00,,,0.15,Wunderground v.1.15,2013-09-21 03:14:00,
2013-09-20 23:19:00,64.8,64.2,29.90,ESE,110,0.0,4.0,98,0.00,,,0.15,Wunderground v.1.15,2013-09-21 03:19:00,
2013-09-20 23:24:00,64.8,64.2,29.90,ESE,110,0.0,4.0,98,0.00,,,0.15,Wunderground v.1.15,2013-09-21 03:24:00,
2013-09-20 23:34:00,64.7,64.1,29.90,ESE,110,0.0,4.0,98,0.00,,,0.15,Wunderground v.1.15,2013-09-21 03:34:00,
2013-09-20 23:39:00,64.7,64.1,29.90,ESE,110,0.0,4.0,98,0.00,,,0.15,Wunderground v.1.15,2013-09-21 03:39:00,
2013-09-20 23:44:00,64.7,64.1,29.90,ESE,110,0.0,4.0,98,0.00,,,0.15,Wunderground v.1.15,2013-09-21 03:44:00,
2013-09-20 23:49:00,64.7,64.1,29.90,ESE,110,0.0,4.0,98,0.00,,,0.15,Wunderground v.1.15,2013-09-21 03:49:00,
2013-09-20 23:59:00,64.7,64.1,29.90,ESE,110,0.0,4.0,98,0.00,,,0.15,Wunderground v.1.15,2013-09-21 03:59:00,